createdAt,value
2023-03-15T00:01:20.161Z,17.33
2023-03-15T00:03:48.157Z,16.38
2023-03-15T00:06:16.443Z,12.55
2023-03-15T00:08:47.621Z,17.00
2023-03-15T00:11:18.569Z,17.77
2023-03-15T00:13:46.832Z,15.50
2023-03-15T00:16:18.619Z,11.07
2023-03-15T00:18:47.425Z,15.55
2023-03-15T00:21:15.976Z,13.88
2023-03-15T00:23:43.842Z,11.07
2023-03-15T00:26:11.929Z,13.73
2023-03-15T00:28:40.017Z,8.48
2023-03-15T00:31:16.060Z,10.82
2023-03-15T00:33:44.347Z,10.25
2023-03-15T00:36:12.410Z,9.20
2023-03-15T00:38:42.925Z,8.32
2023-03-15T00:41:13.033Z,7.35
2023-03-15T00:43:40.972Z,7.30
2023-03-15T00:46:08.981Z,6.20
2023-03-15T00:48:37.696Z,7.43
2023-03-15T00:51:13.889Z,6.60
2023-03-15T00:53:43.626Z,6.30
2023-03-15T00:56:13.898Z,5.85
2023-03-15T00:58:42.022Z,4.22
2023-03-15T01:01:13.022Z,3.47
2023-03-15T01:03:41.892Z,3.30
2023-03-15T01:06:17.971Z,2.92
2023-03-15T01:08:46.457Z,4.55
2023-03-15T01:11:16.937Z,3.38
2023-03-15T01:13:44.909Z,3.55
2023-03-15T01:16:14.316Z,3.42
2023-03-15T01:18:43.322Z,3.45
2023-03-15T01:21:14.106Z,3.35
2023-03-15T01:23:42.357Z,3.67
2023-03-15T01:26:13.765Z,2.80
2023-03-15T01:28:41.995Z,2.40
2023-03-15T01:31:25.109Z,2.90
2023-03-15T01:33:52.883Z,3.42
2023-03-15T01:36:20.661Z,3.75
2023-03-15T01:38:49.689Z,3.00
2023-03-15T01:41:18.659Z,3.70
2023-03-15T01:43:49.559Z,4.00
2023-03-15T01:46:20.227Z,4.93
2023-03-15T01:48:54.660Z,4.22
2023-03-15T01:51:32.605Z,4.50
2023-03-15T01:54:10.335Z,4.18
2023-03-15T01:56:44.894Z,3.60
2023-03-15T01:59:19.894Z,4.40
2023-03-15T02:01:48.535Z,5.38
2023-03-15T02:04:25.062Z,3.40
2023-03-15T02:06:59.422Z,4.35
2023-03-15T02:09:51.016Z,9.25
2023-03-15T02:12:19.164Z,3.65
2023-03-15T02:14:47.619Z,3.40
2023-03-15T02:17:15.085Z,3.17
2023-03-15T02:19:45.814Z,3.80
2023-03-15T02:22:38.840Z,4.13
2023-03-15T02:25:12.218Z,4.40
2023-03-15T02:27:40.467Z,5.00
2023-03-15T02:30:08.690Z,2.35
2023-03-15T02:32:39.162Z,3.65
2023-03-15T02:35:07.087Z,4.63
2023-03-15T02:37:34.679Z,3.42
2023-03-15T02:40:18.014Z,3.53
2023-03-15T02:42:48.734Z,4.07
2023-03-15T02:45:16.992Z,3.78
2023-03-15T02:47:45.926Z,2.58
2023-03-15T02:50:14.909Z,2.85
2023-03-15T02:52:45.217Z,5.68
2023-03-15T02:55:12.991Z,3.95
2023-03-15T02:57:40.503Z,3.65
2023-03-15T03:00:15.805Z,5.88
2023-03-15T03:02:46.204Z,2.03
2023-03-15T03:05:16.160Z,3.03
2023-03-15T03:07:44.692Z,2.10
2023-03-15T03:10:16.097Z,2.25
2023-03-15T03:12:43.659Z,2.08
2023-03-15T03:15:11.667Z,2.42
2023-03-15T03:17:39.355Z,2.05
2023-03-15T03:20:11.975Z,1.30
2023-03-15T03:22:42.079Z,1.35
2023-03-15T03:25:10.368Z,1.20
2023-03-15T03:27:39.394Z,1.40
2023-03-15T03:30:11.843Z,1.55
2023-03-15T03:32:43.454Z,3.15
2023-03-15T03:35:11.184Z,2.15
2023-03-15T03:37:38.650Z,2.92
2023-03-15T03:40:09.263Z,2.88
2023-03-15T03:45:04.823Z,1.35
2023-03-15T03:47:32.651Z,2.72
2023-03-15T03:50:00.363Z,3.08
2023-03-15T03:52:27.949Z,1.85
2023-03-15T03:54:55.365Z,2.10
2023-03-15T03:57:22.932Z,2.92
2023-03-15T03:59:50.762Z,2.63
2023-03-15T04:02:18.711Z,3.17
2023-03-15T04:04:50.277Z,2.97
2023-03-15T04:07:17.864Z,2.05
2023-03-15T04:09:49.018Z,2.25
2023-03-15T04:12:16.626Z,1.33
2023-03-15T04:14:44.464Z,3.00
2023-03-15T04:17:12.618Z,1.63
2023-03-15T04:19:47.007Z,4.40
2023-03-15T04:22:15.442Z,4.07
2023-03-15T04:24:42.933Z,2.47
2023-03-15T04:27:14.622Z,2.33
2023-03-15T04:29:43.928Z,3.65
2023-03-15T04:32:11.946Z,3.42
2023-03-15T04:34:39.610Z,3.80
2023-03-15T04:37:07.214Z,3.35
2023-03-15T04:39:34.707Z,4.63
2023-03-15T04:42:03.246Z,2.53
2023-03-15T04:44:30.962Z,2.13
2023-03-15T04:46:59.294Z,4.10
2023-03-15T04:49:27.355Z,5.32
2023-03-15T04:51:55.002Z,4.75
2023-03-15T04:54:23.397Z,3.42
2023-03-15T04:56:50.870Z,2.55
2023-03-15T04:59:18.440Z,2.53
2023-03-15T05:01:45.926Z,3.35
2023-03-15T05:04:13.578Z,2.88
2023-03-15T05:06:41.086Z,2.17
2023-03-15T05:09:08.940Z,3.00
2023-03-15T05:11:36.762Z,3.28
2023-03-15T05:14:04.219Z,2.13
2023-03-15T05:16:32.921Z,2.13
2023-03-15T05:19:00.725Z,1.75
2023-03-15T05:21:28.503Z,2.88
2023-03-15T05:23:56.290Z,2.88
2023-03-15T05:26:24.894Z,4.72
2023-03-15T05:28:52.969Z,3.33
2023-03-15T05:31:21.059Z,1.80
2023-03-15T05:33:48.826Z,4.00
2023-03-15T05:36:17.584Z,2.38
2023-03-15T05:38:45.740Z,3.67
2023-03-15T05:41:18.267Z,2.72
2023-03-15T05:43:46.010Z,2.40
2023-03-15T05:46:14.085Z,3.70
2023-03-15T05:48:42.187Z,3.53
2023-03-15T05:51:10.090Z,2.13
2023-03-15T05:53:37.669Z,2.72
2023-03-15T05:56:05.671Z,1.65
2023-03-15T05:58:33.380Z,2.67
2023-03-15T06:01:04.087Z,2.88
2023-03-15T06:03:32.132Z,3.17
2023-03-15T06:05:59.932Z,3.42
2023-03-15T06:08:27.736Z,3.50
2023-03-15T06:10:55.232Z,2.42
2023-03-15T06:13:23.040Z,2.42
2023-03-15T06:15:50.700Z,2.88
2023-03-15T06:18:18.626Z,2.42
2023-03-15T06:20:46.175Z,1.98
2023-03-15T06:23:13.654Z,1.67
2023-03-15T06:25:41.104Z,4.13
2023-03-15T06:28:08.576Z,2.92
2023-03-15T06:30:37.052Z,5.45
2023-03-15T06:33:04.643Z,2.90
2023-03-15T06:35:32.407Z,3.70
2023-03-15T06:38:00.205Z,3.33
2023-03-15T06:40:28.618Z,3.13
2023-03-15T06:42:56.462Z,2.70
2023-03-15T06:45:24.252Z,3.47
2023-03-15T06:47:52.316Z,5.95
2023-03-15T06:50:22.009Z,5.35
2023-03-15T06:52:50.043Z,3.42
2023-03-15T06:55:18.597Z,4.82
2023-03-15T06:57:46.098Z,3.92
2023-03-15T07:00:17.784Z,3.80
2023-03-15T07:05:14.174Z,2.22
2023-03-15T07:07:41.781Z,3.67
2023-03-15T07:10:11.374Z,3.65
2023-03-15T07:12:39.550Z,3.53
2023-03-15T07:15:07.881Z,3.97
2023-03-15T07:17:35.607Z,1.25
2023-03-15T07:20:05.961Z,3.40
2023-03-15T07:22:34.643Z,2.75
2023-03-15T07:25:02.293Z,4.82
2023-03-15T07:27:30.301Z,6.50
2023-03-15T07:29:58.516Z,6.65
2023-03-15T07:32:26.254Z,5.60
2023-03-15T07:34:58.336Z,7.45
2023-03-15T07:37:28.355Z,4.15
2023-03-15T07:39:56.359Z,3.47
2023-03-15T07:42:24.125Z,6.25
2023-03-15T07:44:51.758Z,3.00
2023-03-15T07:47:19.286Z,4.28
2023-03-15T07:49:48.795Z,3.70
2023-03-15T07:52:16.570Z,3.78
2023-03-15T07:54:44.476Z,3.97
2023-03-15T07:57:12.203Z,4.22
2023-03-15T07:59:40.067Z,3.00
2023-03-15T08:02:11.883Z,1.55
2023-03-15T08:04:40.316Z,3.50
2023-03-15T08:07:08.331Z,2.22
2023-03-15T08:09:36.370Z,3.53
2023-03-15T08:12:04.052Z,3.88
2023-03-15T08:14:31.742Z,2.97
2023-03-15T08:16:59.355Z,2.95
2023-03-15T08:19:26.891Z,3.53
2023-03-15T08:21:54.598Z,2.28
2023-03-15T08:24:22.174Z,3.58
2023-03-15T08:26:49.839Z,3.63
2023-03-15T08:29:17.562Z,1.98
2023-03-15T08:31:45.215Z,1.88
2023-03-15T08:34:12.757Z,5.30
2023-03-15T08:36:40.384Z,4.93
2023-03-15T08:39:08.434Z,3.90
2023-03-15T08:41:36.296Z,4.63
2023-03-15T08:44:04.061Z,2.25
2023-03-15T08:46:33.016Z,4.20
2023-03-15T08:49:01.995Z,8.27
2023-03-15T08:51:31.089Z,5.70
2023-03-15T08:53:59.181Z,4.20
2023-03-15T08:56:27.609Z,2.73
2023-03-15T08:58:55.789Z,4.78
2023-03-15T09:01:23.757Z,2.30
2023-03-15T09:03:51.657Z,5.85
2023-03-15T09:06:19.278Z,3.83
2023-03-15T09:08:46.861Z,2.15
2023-03-15T09:11:14.441Z,3.85
2023-03-15T09:13:42.000Z,2.45
2023-03-15T09:16:09.747Z,4.70
2023-03-15T09:18:37.899Z,5.57
2023-03-15T09:21:05.736Z,4.32
2023-03-15T09:23:33.742Z,4.20
2023-03-15T09:26:01.298Z,2.38
2023-03-15T09:28:29.382Z,1.80
2023-03-15T09:30:58.847Z,3.83
2023-03-15T09:33:27.743Z,4.78
2023-03-15T09:35:55.501Z,3.92
2023-03-15T09:38:24.129Z,4.78
2023-03-15T09:40:58.380Z,3.38
2023-03-15T09:43:29.029Z,4.22
2023-03-15T09:46:42.647Z,5.07
2023-03-15T09:49:17.416Z,3.58
2023-03-15T09:52:13.860Z,4.65
2023-03-15T09:54:55.215Z,1.75
2023-03-15T09:57:48.754Z,3.35
2023-03-15T10:00:22.838Z,4.50
2023-03-15T10:03:03.908Z,5.88
2023-03-15T10:05:46.703Z,2.95
2023-03-15T10:08:18.531Z,6.20
2023-03-15T10:10:50.819Z,8.07
2023-03-15T10:13:35.440Z,6.90
2023-03-15T10:16:36.779Z,3.75
2023-03-15T10:19:13.877Z,2.53
2023-03-15T10:22:00.552Z,1.90
2023-03-15T10:24:49.157Z,5.57
2023-03-15T10:27:24.333Z,3.97
2023-03-15T10:32:30.768Z,5.90
2023-03-15T10:35:01.519Z,2.95
2023-03-15T10:37:29.423Z,2.75
2023-03-15T10:40:01.085Z,5.53
2023-03-15T10:42:31.684Z,3.92
2023-03-15T10:45:11.790Z,4.18
2023-03-15T10:47:57.577Z,4.10
2023-03-15T10:50:29.569Z,2.00
2023-03-15T10:52:59.070Z,2.65
2023-03-15T10:55:37.035Z,3.05
2023-03-15T10:58:31.133Z,2.63
2023-03-15T11:01:02.318Z,2.05
2023-03-15T11:03:31.291Z,7.15
2023-03-15T11:05:59.820Z,2.97
2023-03-15T11:08:39.715Z,7.07
2023-03-15T11:11:08.917Z,4.00
2023-03-15T11:16:13.210Z,1.23
2023-03-15T11:18:49.017Z,1.65
2023-03-15T11:21:19.702Z,5.13
2023-03-15T11:23:49.732Z,2.38
2023-03-15T11:26:32.275Z,5.53
2023-03-15T11:29:19.227Z,3.67
2023-03-15T11:31:47.701Z,1.77
2023-03-15T11:34:34.087Z,1.33
2023-03-15T11:37:11.156Z,5.22
2023-03-15T11:39:58.875Z,9.47
2023-03-15T11:42:48.333Z,3.78
2023-03-15T11:45:36.960Z,2.20
2023-03-15T11:48:25.525Z,3.90
2023-03-15T11:50:54.830Z,3.67
2023-03-15T11:53:25.841Z,2.85
2023-03-15T11:55:58.647Z,5.70
2023-03-15T11:58:35.449Z,3.67
2023-03-15T12:01:06.934Z,4.38
2023-03-15T12:03:38.690Z,1.58
2023-03-15T12:06:11.217Z,1.77
2023-03-15T12:08:46.770Z,4.82
2023-03-15T12:11:35.001Z,3.08
2023-03-15T12:14:02.844Z,3.00
2023-03-15T12:16:45.157Z,2.75
2023-03-15T12:19:18.768Z,2.67
2023-03-15T12:21:52.184Z,4.03
2023-03-15T12:24:31.578Z,3.30
2023-03-15T12:27:06.320Z,3.58
2023-03-15T12:29:36.230Z,2.08
2023-03-15T12:32:03.632Z,6.10
2023-03-15T12:34:37.350Z,2.40
2023-03-15T12:37:09.380Z,1.05
2023-03-15T12:39:43.371Z,3.42
2023-03-15T12:42:31.314Z,3.78
2023-03-15T12:45:27.623Z,2.53
2023-03-15T12:47:55.005Z,5.32
2023-03-15T12:50:47.950Z,2.17
2023-03-15T12:53:37.194Z,5.20
2023-03-15T12:56:32.800Z,2.00
2023-03-15T12:59:12.816Z,6.00
2023-03-15T13:01:42.789Z,3.58
2023-03-15T13:04:13.310Z,1.10
2023-03-15T13:06:56.713Z,2.20
2023-03-15T13:09:36.437Z,1.40
2023-03-15T13:12:04.010Z,6.15
2023-03-15T13:15:11.945Z,6.38
2023-03-15T13:17:57.668Z,5.10
2023-03-15T13:20:37.539Z,1.58
2023-03-15T13:23:17.706Z,3.20
2023-03-15T13:25:53.661Z,5.93
2023-03-15T13:28:46.396Z,2.40
2023-03-15T13:31:24.056Z,4.35
2023-03-15T13:34:00.270Z,3.65
2023-03-15T13:36:39.890Z,3.53
2023-03-15T13:39:20.033Z,3.05
2023-03-15T13:41:47.794Z,6.25
2023-03-15T13:44:23.885Z,12.77
2023-03-15T13:46:53.121Z,5.93
2023-03-15T13:49:20.933Z,2.75
2023-03-15T13:51:50.133Z,2.28
2023-03-15T13:54:27.773Z,4.25
2023-03-15T13:57:06.510Z,3.33
2023-03-15T14:00:11.000Z,2.72
2023-03-15T14:03:13.280Z,1.20
2023-03-15T14:05:47.364Z,6.38
2023-03-15T14:08:27.048Z,5.93
2023-03-15T14:11:05.549Z,7.03
2023-03-15T14:13:36.215Z,2.13
2023-03-15T14:16:06.236Z,3.88
2023-03-15T14:18:39.272Z,4.82
2023-03-15T14:21:07.696Z,9.45
2023-03-15T14:23:41.235Z,9.20
2023-03-15T14:26:21.606Z,6.88
2023-03-15T14:29:07.629Z,6.65
2023-03-15T14:31:40.782Z,3.75
2023-03-15T14:34:19.134Z,9.85
2023-03-15T14:36:47.785Z,3.13
2023-03-15T14:39:28.617Z,4.97
2023-03-15T14:41:56.418Z,2.38
2023-03-15T14:44:24.053Z,2.70
2023-03-15T14:46:52.085Z,3.58
2023-03-15T14:49:24.612Z,3.65
2023-03-15T14:51:56.016Z,3.05
2023-03-15T14:54:24.006Z,5.97
2023-03-15T14:56:52.130Z,4.57
2023-03-15T14:59:19.997Z,4.43
2023-03-15T15:01:51.493Z,4.68
2023-03-15T15:04:20.393Z,5.45
2023-03-15T15:06:53.059Z,2.13
2023-03-15T15:09:26.411Z,5.13
2023-03-15T15:11:54.794Z,4.03
2023-03-15T15:14:22.841Z,6.78
2023-03-15T15:16:52.079Z,4.13
2023-03-15T15:19:19.802Z,2.58
2023-03-15T15:21:47.346Z,3.83
2023-03-15T15:24:18.427Z,11.23
2023-03-15T15:26:47.230Z,5.20
2023-03-15T15:29:16.837Z,4.50
2023-03-15T15:31:45.325Z,6.13
2023-03-15T15:34:12.980Z,5.78
2023-03-15T15:36:45.741Z,8.32
2023-03-15T15:39:27.025Z,8.32
2023-03-15T15:41:54.552Z,7.95
2023-03-15T15:44:25.716Z,8.85
2023-03-15T15:46:53.432Z,5.20
2023-03-15T15:49:21.235Z,6.03
2023-03-15T15:51:49.961Z,5.65
2023-03-15T15:54:20.419Z,8.63
2023-03-15T15:56:52.191Z,9.52
2023-03-15T15:59:20.535Z,6.97
2023-03-15T16:01:59.980Z,5.68
2023-03-15T16:04:34.460Z,4.00
2023-03-15T16:07:03.833Z,7.05
2023-03-15T16:09:36.062Z,11.30
2023-03-15T16:12:15.010Z,5.22
2023-03-15T16:17:22.141Z,7.13
2023-03-15T16:19:51.787Z,6.15
2023-03-15T16:24:52.576Z,11.88
2023-03-15T16:27:24.782Z,8.75
2023-03-15T16:29:55.925Z,5.63
2023-03-15T16:32:40.968Z,10.40
2023-03-15T16:35:15.615Z,11.93
2023-03-15T16:37:45.577Z,7.07
2023-03-15T16:40:27.254Z,7.72
2023-03-15T16:42:55.531Z,6.72
2023-03-15T16:45:24.700Z,9.80
2023-03-15T16:50:20.783Z,10.25
2023-03-15T16:52:52.183Z,11.40
2023-03-15T16:55:28.005Z,8.80
2023-03-15T16:57:56.783Z,7.82
2023-03-15T17:00:25.954Z,7.68
2023-03-15T17:02:54.868Z,4.45
2023-03-15T17:05:24.825Z,7.93
2023-03-15T17:07:55.232Z,7.45
2023-03-15T17:10:31.557Z,10.23
2023-03-15T17:13:01.328Z,12.63
2023-03-15T17:15:30.633Z,10.15
2023-03-15T17:18:00.499Z,9.75
2023-03-15T17:20:31.195Z,9.48
2023-03-15T17:23:04.275Z,12.18
2023-03-15T17:25:34.331Z,11.25
2023-03-15T17:28:02.307Z,9.50
2023-03-15T17:30:36.043Z,11.60
2023-03-15T17:33:05.389Z,9.48
2023-03-15T17:38:13.829Z,8.00
2023-03-15T17:40:42.743Z,8.63
2023-03-15T17:43:13.208Z,8.82
2023-03-15T17:45:41.371Z,9.80
2023-03-15T17:48:09.499Z,9.00
2023-03-15T17:50:38.303Z,4.30
2023-03-15T17:53:17.415Z,5.68
2023-03-15T17:55:46.352Z,7.03
2023-03-15T18:00:48.638Z,8.77
2023-03-15T18:03:17.397Z,10.98
2023-03-15T18:05:45.838Z,8.27
2023-03-15T18:08:18.327Z,8.10
2023-03-15T18:10:48.971Z,9.25
2023-03-15T18:13:21.497Z,9.02
2023-03-15T18:15:51.277Z,6.82
2023-03-15T18:18:19.402Z,9.30
2023-03-15T18:20:49.465Z,8.57
2023-03-15T18:23:18.072Z,7.78
2023-03-15T18:25:46.861Z,9.75
2023-03-15T18:28:15.028Z,8.70
2023-03-15T18:30:44.241Z,9.63
2023-03-15T18:33:12.348Z,9.45
2023-03-15T18:35:40.301Z,8.48
2023-03-15T18:38:08.190Z,7.30
2023-03-15T18:40:36.139Z,10.57
2023-03-15T18:43:05.594Z,8.10
2023-03-15T18:45:36.322Z,9.05
2023-03-15T18:48:05.161Z,8.63
2023-03-15T18:50:35.431Z,10.88
2023-03-15T18:53:06.074Z,7.53
2023-03-15T18:55:33.991Z,6.88
2023-03-15T18:58:02.151Z,8.48
2023-03-15T19:00:36.022Z,10.10
2023-03-15T19:03:05.609Z,9.85
2023-03-15T19:05:36.920Z,6.28
2023-03-15T19:08:05.301Z,10.88
2023-03-15T19:13:04.002Z,8.02
2023-03-15T19:15:32.663Z,11.23
2023-03-15T19:18:20.567Z,10.90
2023-03-15T19:20:48.796Z,8.00
2023-03-15T19:23:16.651Z,10.00
2023-03-15T19:25:46.012Z,5.73
2023-03-15T19:28:14.527Z,11.05
2023-03-15T19:30:42.573Z,5.60
2023-03-15T19:33:11.450Z,8.75
2023-03-15T19:35:40.137Z,11.75
2023-03-15T19:38:08.207Z,5.30
2023-03-15T19:40:36.607Z,7.53
2023-03-15T19:43:05.060Z,7.20
2023-03-15T19:45:33.224Z,5.57
2023-03-15T19:48:01.492Z,9.18
2023-03-15T19:50:31.797Z,7.40
2023-03-15T19:53:00.225Z,6.70
2023-03-15T19:55:31.364Z,7.18
2023-03-15T19:57:59.607Z,8.45
2023-03-15T20:00:27.666Z,8.25
2023-03-15T20:02:56.454Z,7.32
2023-03-15T20:05:25.656Z,6.35
2023-03-15T20:07:54.371Z,8.18
2023-03-15T20:10:22.638Z,9.80
2023-03-15T20:12:50.625Z,5.70
2023-03-15T20:15:19.362Z,8.68
2023-03-15T20:17:47.279Z,6.47
2023-03-15T20:20:15.335Z,6.50
2023-03-15T20:22:45.371Z,6.45
2023-03-15T20:25:16.904Z,5.90
2023-03-15T20:27:45.113Z,7.70
2023-03-15T20:30:15.154Z,6.33
2023-03-15T20:32:43.420Z,7.10
2023-03-15T20:35:12.221Z,9.30
2023-03-15T20:37:41.891Z,9.07
2023-03-15T20:40:13.444Z,9.32
2023-03-15T20:42:42.665Z,8.35
2023-03-15T20:45:12.544Z,8.20
2023-03-15T20:47:41.277Z,9.00
2023-03-15T20:50:11.167Z,8.77
2023-03-15T20:52:40.959Z,12.73
2023-03-15T20:55:11.034Z,7.65
2023-03-15T20:57:41.718Z,7.00
2023-03-15T21:00:16.801Z,7.40
2023-03-15T21:02:46.609Z,8.60
2023-03-15T21:05:16.351Z,8.68
2023-03-15T21:10:15.789Z,11.95
2023-03-15T21:12:46.599Z,10.32
2023-03-15T21:15:18.932Z,7.82
2023-03-15T21:17:49.976Z,6.50
2023-03-15T21:20:18.523Z,7.10
2023-03-15T21:22:46.275Z,5.30
2023-03-15T21:25:13.821Z,11.77
2023-03-15T21:27:42.589Z,8.52
2023-03-15T21:30:13.906Z,6.55
2023-03-15T21:32:42.912Z,10.80
2023-03-15T21:37:39.006Z,5.53
2023-03-15T21:40:07.607Z,11.57
2023-03-15T21:42:35.651Z,6.00
2023-03-15T21:45:04.629Z,11.90
2023-03-15T21:50:00.504Z,8.88
2023-03-15T21:52:28.407Z,6.22
2023-03-15T21:54:56.206Z,8.55
2023-03-15T21:57:23.990Z,10.43
2023-03-15T21:59:51.857Z,5.47
2023-03-15T22:02:19.729Z,6.07
2023-03-15T22:04:47.555Z,6.43
2023-03-15T22:07:15.530Z,7.47
2023-03-15T22:09:43.451Z,5.07
2023-03-15T22:12:11.886Z,7.50
2023-03-15T22:14:41.311Z,9.25
2023-03-15T22:17:09.166Z,8.03
2023-03-15T22:19:36.819Z,8.20
2023-03-15T22:22:05.275Z,12.98
2023-03-15T22:24:34.093Z,7.43
2023-03-15T22:27:02.542Z,9.32
2023-03-15T22:29:30.401Z,7.55
2023-03-15T22:31:58.080Z,6.20
2023-03-15T22:34:27.662Z,5.50
2023-03-15T22:36:55.102Z,9.00
2023-03-15T22:39:22.524Z,6.57
2023-03-15T22:41:50.030Z,7.63
2023-03-15T22:44:17.508Z,6.85
2023-03-15T22:46:45.099Z,7.50
2023-03-15T22:49:12.665Z,8.95
2023-03-15T22:51:41.028Z,4.15
2023-03-15T22:54:08.744Z,6.63
2023-03-15T22:56:36.258Z,5.88
2023-03-15T22:59:04.232Z,7.20
2023-03-15T23:01:32.056Z,7.18
2023-03-15T23:03:59.847Z,8.15
2023-03-15T23:06:27.316Z,5.53
2023-03-15T23:08:54.865Z,7.22
2023-03-15T23:11:22.424Z,8.90
2023-03-15T23:13:50.369Z,7.70
2023-03-15T23:16:19.063Z,9.63
2023-03-15T23:18:48.707Z,4.15
2023-03-15T23:21:16.435Z,7.50
2023-03-15T23:23:44.226Z,8.80
2023-03-15T23:26:12.933Z,7.45
2023-03-15T23:28:40.368Z,7.70
2023-03-15T23:31:08.103Z,8.82
2023-03-15T23:33:35.790Z,6.10
2023-03-15T23:36:07.142Z,8.23
2023-03-15T23:38:34.848Z,9.23
2023-03-15T23:41:03.092Z,7.60
2023-03-15T23:43:31.419Z,6.33
2023-03-15T23:46:00.605Z,4.55
2023-03-15T23:50:57.967Z,5.35
2023-03-15T23:53:25.851Z,10.32
2023-03-15T23:55:53.586Z,5.57
2023-03-15T23:58:22.023Z,5.72
